Time;durP1;ratioP1;P1;durP2;ratioP2;P2;SDS_P1;SDS_P2;PMS_P1;PMS_P2;Temp;Humidity;BMP_temperature;BMP_pressure;BME280_temperature;BME280_humidity;BME280_pressure;Samples;Min_cycle;Max_cycle;Signal;HPM_P1;HPM_P2
2022/04/03 13:12:38;;;;;;;1.33;1.23;;;;;;;33.17;11.53;99422.41;5107955;28;20557;-82
2022/04/03 13:15:07;;;;;;;1.30;1.20;;;;;;;33.49;11.15;99427.78;5103718;28;39783;-82
2022/04/03 13:17:35;;;;;;;0.93;0.93;;;;;;;32.62;11.65;99428.84;5122168;27;42781;-83
2022/04/03 13:20:04;;;;;;;1.10;1.00;;;;;;;30.98;12.24;99423.94;5128486;27;42681;-81
2022/04/03 13:22:31;;;;;;;2.10;1.37;;;;;;;31.49;11.80;99422.34;5127733;27;41188;-80
2022/04/03 13:25:00;;;;;;;1.93;1.50;;;;;;;32.03;11.29;99433.69;5117877;27;39391;-83
2022/04/03 13:27:28;;;;;;;1.37;1.27;;;;;;;32.24;11.37;99424.31;5085853;28;41536;-82
2022/04/03 13:29:58;;;;;;;1.17;1.13;;;;;;;30.63;11.81;99417.06;5097762;27;42831;-81
2022/04/03 13:32:26;;;;;;;1.30;1.20;;;;;;;30.75;11.90;99423.56;5123652;27;41967;-81
2022/04/03 13:34:54;;;;;;;1.60;1.50;;;;;;;31.53;12.32;99416.22;5125513;27;38930;-80
2022/04/03 13:37:21;;;;;;;1.17;1.03;;;;;;;31.96;11.82;99421.94;5126662;27;41939;-81
2022/04/03 13:39:49;;;;;;;1.33;1.23;;;;;;;32.31;11.20;99405.91;5105824;27;42978;-80
2022/04/03 13:42:18;;;;;;;1.13;1.07;;;;;;;32.60;11.25;99420.84;5107397;28;42180;-80
2022/04/03 13:44:45;;;;;;;1.10;1.03;;;;;;;32.65;10.80;99417.41;5088886;28;40222;-80
2022/04/03 13:47:16;;;;;;;1.07;1.00;;;;;;;32.19;10.83;99420.53;5106443;28;42382;-82
2022/04/03 13:49:43;;;;;;;1.40;1.30;;;;;;;31.72;11.05;99418.06;5106362;28;42382;-80
2022/04/03 13:52:12;;;;;;;2.57;1.07;;;;;;;31.30;12.31;99396.72;5105326;28;41646;-80
2022/04/03 13:54:41;;;;;;;1.70;1.53;;;;;;;30.71;12.01;99397.69;5084785;28;39428;-81
2022/04/03 13:57:08;;;;;;;0.97;0.93;;;;;;;30.09;13.13;99387.97;5085856;28;41624;-81
2022/04/03 13:59:36;;;;;;;1.80;1.20;;;;;;;29.85;13.24;99380.34;5095614;28;43535;-81
2022/04/03 14:02:04;;;;;;;1.40;1.30;;;;;;;29.55;12.30;99402.53;5087955;28;41045;-82
2022/04/03 14:04:33;;;;;;;1.23;1.13;;;;;;;29.12;13.46;99373.78;5088645;27;38821;-81
2022/04/03 14:07:01;;;;;;;2.17;1.20;;;;;;;28.85;13.24;99387.25;5105512;28;40887;-81
2022/04/03 14:09:29;;;;;;;1.50;1.20;;;;;;;27.81;13.98;99385.28;5107240;28;42960;-81
2022/04/03 14:11:57;;;;;;;0.90;0.90;;;;;;;27.25;14.92;99368.69;5105116;28;42208;-82
2022/04/03 14:14:25;;;;;;;1.40;1.13;;;;;;;26.91;15.40;99360.25;5108801;27;39080;-82
2022/04/03 14:16:58;;;;;;;1.43;1.33;;;;;;;26.77;14.40;99370.94;5106207;28;41013;-81
2022/04/03 14:19:26;;;;;;;1.20;1.00;;;;;;;26.43;15.62;99362.47;5088841;28;41809;-82
2022/04/03 14:21:56;;;;;;;2.00;1.30;;;;;;;26.00;15.20;99340.44;5103576;28;40935;-81
2022/04/03 14:24:24;;;;;;;1.27;1.00;;;;;;;25.88;15.08;99352.75;5092609;28;39888;-82
2022/04/03 14:26:52;;;;;;;1.30;1.20;;;;;;;25.78;15.83;99357.56;5091757;28;40685;-81
2022/04/03 14:29:20;;;;;;;1.97;1.40;;;;;;;25.48;14.43;99375.53;5075252;28;43143;-80
2022/04/03 14:31:50;;;;;;;1.50;1.30;;;;;;;25.13;15.36;99366.06;5092682;28;42212;-81
2022/04/03 14:34:18;;;;;;;1.00;1.00;;;;;;;25.07;15.91;99364.06;5091744;28;39718;-80
2022/04/03 14:36:45;;;;;;;1.67;1.17;;;;;;;25.11;15.69;99346.41;5109071;28;44319;-80
2022/04/03 14:39:15;;;;;;;1.30;1.20;;;;;;;25.37;15.47;99370.50;5092710;28;43054;-80
2022/04/03 14:41:42;;;;;;;1.10;1.00;;;;;;;25.52;15.06;99368.72;5091942;28;42326;-80
2022/04/03 14:44:11;;;;;;;1.70;1.60;;;;;;;25.61;15.39;99364.13;5094319;28;40084;-80
2022/04/03 14:46:38;;;;;;;2.27;1.20;;;;;;;25.56;14.41;99359.22;5092978;28;42136;-80
2022/04/03 14:49:12;;;;;;;1.57;1.47;;;;;;;25.44;14.26;99365.25;5075112;28;43476;-80
2022/04/03 14:51:40;;;;;;;2.80;1.20;;;;;;;25.20;14.69;99364.34;5074387;28;42279;-79
2022/04/03 14:54:08;;;;;;;1.00;1.00;;;;;;;24.80;14.21;99369.88;5091745;28;40089;-80
2022/04/03 14:56:37;;;;;;;1.30;1.20;;;;;;;24.48;15.10;99363.53;5074050;28;41132;-79
2022/04/03 14:59:05;;;;;;;1.10;1.03;;;;;;;24.07;14.61;99359.16;5092363;28;42869;-80
2022/04/03 15:01:32;;;;;;;2.00;1.37;;;;;;;23.59;15.49;99366.22;5125359;27;42080;-80
2022/04/03 15:04:00;;;;;;;1.67;1.40;;;;;;;22.94;15.81;99338.97;5087010;28;39939;-79
2022/04/03 15:06:28;;;;;;;1.77;1.30;;;;;;;22.65;15.60;99357.34;5091981;28;42617;-79
2022/04/03 15:08:57;;;;;;;1.33;1.20;;;;;;;21.96;16.29;99352.81;5073011;28;41537;-80
2022/04/03 15:11:25;;;;;;;3.03;1.67;;;;;;;21.02;17.31;99341.53;5089525;28;43001;-80
2022/04/03 15:13:55;;;;;;;2.17;1.20;;;;;;;20.61;17.34;99343.72;5090121;28;40101;-81
2022/04/03 15:16:22;;;;;;;1.07;1.07;;;;;;;19.95;17.73;99329.41;5073883;28;41860;-80
2022/04/03 15:18:50;;;;;;;2.10;1.50;;;;;;;19.24;18.77;99339.56;5089560;28;45130;-81
2022/04/03 15:21:18;;;;;;;1.40;1.30;;;;;;;18.46;19.41;99342.94;5091001;28;43111;-82
2022/04/03 15:23:46;;;;;;;2.30;1.50;;;;;;;17.49;19.23;99336.88;5089858;28;39976;-82
2022/04/03 15:26:14;;;;;;;1.17;1.00;;;;;;;16.59;21.06;99313.94;5086514;28;42752;-80
2022/04/03 15:28:42;;;;;;;0.80;0.80;;;;;;;16.04;22.04;99322.78;5091713;28;43610;-81
2022/04/03 15:31:17;;;;;;;1.53;1.30;;;;;;;15.31;22.47;99301.66;5090458;28;40981;-80
2022/04/03 15:33:44;;;;;;;1.53;1.10;;;;;;;14.96;23.04;99314.94;5067345;28;38345;-80
2022/04/03 15:36:12;;;;;;;2.73;2.10;;;;;;;14.47;23.16;99305.13;5073631;28;42062;-81
2022/04/03 15:38:40;;;;;;;1.20;1.10;;;;;;;14.06;23.42;99299.19;5072459;28;41785;-79
2022/04/03 15:41:09;;;;;;;2.27;1.30;;;;;;;13.74;23.99;99312.03;5089637;28;42177;-79
2022/04/03 15:43:36;;;;;;;1.63;1.10;;;;;;;13.10;23.78;99265.81;5067584;28;38657;-78
2022/04/03 15:46:04;;;;;;;1.90;1.37;;;;;;;13.01;24.50;99303.63;5071742;28;42429;-80
2022/04/03 15:48:34;;;;;;;1.53;1.37;;;;;;;12.68;24.53;99312.81;5070563;28;41904;-79
2022/04/03 15:51:02;;;;;;;1.60;1.50;;;;;;;12.40;25.06;99304.88;5091443;28;41844;-81
2022/04/03 15:53:31;;;;;;;1.17;1.07;;;;;;;12.16;26.30;99299.31;5090520;28;40952;-80
2022/04/03 15:55:58;;;;;;;1.37;1.27;;;;;;;11.99;26.09;99295.03;5089398;28;41746;-80
2022/04/03 15:58:26;;;;;;;1.93;1.30;;;;;;;11.81;26.54;99267.81;5089152;28;42845;-80
2022/04/03 16:00:54;;;;;;;1.60;1.30;;;;;;;11.93;26.55;99270.66;5087903;28;42943;-80
2022/04/03 16:03:22;;;;;;;1.30;1.20;;;;;;;12.05;26.74;99285.84;5087331;28;38458;-80
2022/04/03 16:05:51;;;;;;;1.93;1.30;;;;;;;12.05;26.41;99288.50;5088984;28;42447;-82
2022/04/03 16:08:19;;;;;;;1.27;1.17;;;;;;;11.94;27.06;99283.00;5090956;28;43645;-81
2022/04/03 16:10:46;;;;;;;1.63;1.17;;;;;;;11.74;27.13;99266.47;5088029;28;42128;-80
2022/04/03 16:13:16;;;;;;;1.23;1.10;;;;;;;11.69;27.90;99276.50;5089786;28;38660;-80
2022/04/03 16:15:43;;;;;;;1.40;1.30;;;;;;;11.61;27.26;99292.03;5091696;28;41679;-81
2022/04/03 16:18:11;;;;;;;1.93;1.50;;;;;;;11.42;27.80;99280.78;5089393;28;43224;-80
2022/04/03 16:20:38;;;;;;;2.17;1.47;;;;;;;11.27;27.65;99289.63;5072887;28;41845;-80
2022/04/03 16:23:08;;;;;;;1.90;1.27;;;;;;;11.06;28.12;99279.34;5072738;28;39121;-80
2022/04/03 16:25:37;;;;;;;1.20;1.10;;;;;;;11.03;28.43;99295.41;5084977;28;42782;-81
2022/04/03 16:28:05;;;;;;;1.30;1.17;;;;;;;10.92;29.16;99300.47;5087945;28;43071;-81
2022/04/03 16:30:32;;;;;;;2.17;1.30;;;;;;;10.81;29.00;99289.63;5087730;28;43127;-78
2022/04/03 16:33:00;;;;;;;2.50;1.33;;;;;;;10.63;29.94;99269.50;5086133;28;39809;-79
2022/04/03 16:35:28;;;;;;;1.10;1.00;;;;;;;10.65;29.44;99299.38;5070347;28;40808;-81
2022/04/03 16:37:56;;;;;;;1.23;1.13;;;;;;;10.46;29.54;99272.22;5072596;28;41650;-78
2022/04/03 16:40:26;;;;;;;1.20;1.10;;;;;;;10.46;29.89;99277.50;5068139;28;41334;-79
2022/04/03 16:42:54;;;;;;;1.67;1.50;;;;;;;10.41;29.80;99291.84;5090519;28;38775;-81
2022/04/03 16:45:22;;;;;;;2.23;1.20;;;;;;;10.31;29.51;99295.09;5073177;28;41121;-81
2022/04/03 16:47:56;;;;;;;1.87;1.17;;;;;;;10.17;29.81;99277.28;5073699;28;42273;-81
2022/04/03 16:50:24;;;;;;;1.60;1.40;;;;;;;10.20;30.73;99281.56;5090201;28;41202;-81
2022/04/03 16:52:52;;;;;;;1.77;1.60;;;;;;;10.09;30.28;99279.47;5090302;28;39662;-80
2022/04/03 16:55:20;;;;;;;1.83;1.30;;;;;;;9.79;30.47;99262.59;5091299;28;42462;-80
2022/04/03 16:57:49;;;;;;;1.83;1.47;;;;;;;9.71;30.35;99279.72;5073350;28;43639;-79
2022/04/03 17:00:17;;;;;;;1.50;1.27;;;;;;;9.42;31.27;99238.06;5089837;28;42521;-80
2022/04/03 17:02:45;;;;;;;1.57;1.10;;;;;;;9.53;31.27;99277.16;5091949;28;40271;-81
2022/04/03 17:05:12;;;;;;;1.53;1.20;;;;;;;9.32;32.16;99247.41;5067767;28;41756;-80
2022/04/03 17:07:40;;;;;;;1.50;1.40;;;;;;;9.12;31.66;99252.84;5090170;28;43070;-81
2022/04/03 17:10:10;;;;;;;2.10;1.10;;;;;;;9.09;32.51;99279.41;5073191;28;41291;-81
2022/04/03 17:12:39;;;;;;;2.10;1.60;;;;;;;8.88;32.27;99282.19;5072324;28;39195;-82
2022/04/03 17:15:12;;;;;;;1.70;1.30;;;;;;;8.69;32.68;99278.72;5072860;28;40591;-81
2022/04/03 17:17:40;;;;;;;1.37;1.20;;;;;;;8.48;32.91;99277.13;5073062;28;43309;-80
2022/04/03 17:20:09;;;;;;;1.10;1.00;;;;;;;8.32;33.52;99276.97;5091281;28;42222;-81
2022/04/03 17:22:37;;;;;;;1.30;1.20;;;;;;;8.06;33.56;99259.66;5073209;28;40642;-80
2022/04/03 17:25:06;;;;;;;0.80;0.80;;;;;;;8.03;33.56;99280.06;5073412;28;43578;-81
2022/04/03 17:27:34;;;;;;;1.47;1.30;;;;;;;7.89;33.67;99270.16;5073504;28;42889;-81
2022/04/03 17:30:02;;;;;;;1.53;1.13;;;;;;;7.78;34.02;99251.31;5072540;28;41229;-81
2022/04/03 17:32:31;;;;;;;3.50;1.53;;;;;;;7.74;33.85;99262.91;5089933;28;40905;-81
2022/04/03 17:35:06;;;;;;;2.27;1.40;;;;;;;7.79;33.69;99282.84;5073377;28;40847;-80
2022/04/03 17:37:35;;;;;;;2.27;1.60;;;;;;;7.69;33.95;99268.38;5072943;28;42194;-80
2022/04/03 17:40:03;;;;;;;2.23;1.37;;;;;;;7.71;34.44;99278.84;5072587;28;41146;-80
2022/04/03 17:42:31;;;;;;;2.00;1.40;;;;;;;7.55;34.40;99258.44;5090815;28;41466;-80
2022/04/03 17:44:59;;;;;;;1.40;1.30;;;;;;;7.60;34.74;99271.44;5072893;28;40724;-80
2022/04/03 17:47:27;;;;;;;1.20;1.10;;;;;;;7.58;34.95;99279.41;5088805;28;43000;-80
2022/04/03 17:49:58;;;;;;;2.67;1.40;;;;;;;7.50;35.35;99270.13;5060325;28;41143;-81
2022/04/03 17:52:26;;;;;;;1.30;1.20;;;;;;;7.44;35.89;99271.22;5068198;28;39987;-81
2022/04/03 17:54:54;;;;;;;1.10;1.00;;;;;;;7.34;35.71;99275.19;5072873;28;42223;-80
2022/04/03 17:57:22;;;;;;;2.03;1.20;;;;;;;7.30;35.63;99272.75;5102414;28;42866;-80
2022/04/03 17:59:49;;;;;;;1.13;1.03;;;;;;;7.09;36.24;99254.28;5082231;28;42981;-81
2022/04/03 18:02:17;;;;;;;1.43;1.33;;;;;;;7.01;36.46;99266.94;5105552;28;38726;-81
2022/04/03 18:04:47;;;;;;;3.53;1.40;;;;;;;6.99;37.29;99279.31;5090827;28;40847;-81
2022/04/03 18:07:16;;;;;;;1.83;1.30;;;;;;;6.89;37.26;99274.47;5123931;28;41152;-80
2022/04/03 18:09:43;;;;;;;2.90;1.43;;;;;;;6.79;36.71;99285.41;5075280;28;41880;-82
2022/04/03 18:12:13;;;;;;;1.10;1.00;;;;;;;6.70;36.63;99282.25;5092288;28;39845;-81
2022/04/03 18:14:41;;;;;;;1.37;1.27;;;;;;;6.45;36.61;99256.91;5075708;28;40860;-82
2022/04/03 18:17:10;;;;;;;0.90;0.90;;;;;;;6.40;36.73;99284.34;5076419;28;42397;-80
2022/04/03 18:19:38;;;;;;;2.27;1.03;;;;;;;6.20;36.63;99281.59;5092450;28;40885;-81
2022/04/03 18:22:06;;;;;;;1.20;1.00;;;;;;;5.90;36.26;99267.84;5075454;28;40124;-80
2022/04/03 18:24:36;;;;;;;1.17;1.03;;;;;;;5.75;36.41;99279.72;5072615;28;42035;-81
2022/04/03 18:27:07;;;;;;;1.23;1.10;;;;;;;5.60;36.90;99270.63;5092843;28;43930;-81
2022/04/03 18:29:34;;;;;;;1.93;1.50;;;;;;;5.52;37.12;99285.81;5075608;28;41106;-81
2022/04/03 18:32:02;;;;;;;1.07;1.00;;;;;;;5.36;37.19;99288.09;5075242;28;39175;-82
2022/04/03 18:34:30;;;;;;;2.07;1.30;;;;;;;5.22;37.13;99284.22;5074775;28;40660;-80
2022/04/03 18:36:57;;;;;;;1.40;1.30;;;;;;;5.09;37.23;99290.81;5088182;28;42777;-80
2022/04/03 18:39:25;;;;;;;2.47;1.40;;;;;;;4.96;36.91;99292.97;5074896;28;42225;-81
2022/04/03 18:41:57;;;;;;;1.50;1.17;;;;;;;4.84;37.05;99291.59;5091599;28;38882;-81
2022/04/03 18:44:24;;;;;;;1.73;1.30;;;;;;;4.74;37.14;99295.44;5085107;28;41665;-80
2022/04/03 18:46:52;;;;;;;3.10;1.40;;;;;;;4.61;37.24;99300.22;5074780;28;42462;-81
2022/04/03 18:49:21;;;;;;;1.93;1.40;;;;;;;4.44;37.67;99289.41;5073359;28;40902;-80
2022/04/03 18:51:49;;;;;;;1.87;1.20;;;;;;;4.43;37.35;99302.56;5073328;28;39038;-82
2022/04/03 18:54:17;;;;;;;1.47;1.17;;;;;;;4.33;37.28;99297.56;5071240;28;41037;-82
2022/04/03 18:56:46;;;;;;;2.23;1.50;;;;;;;4.22;37.51;99288.31;5073342;28;42100;-81
2022/04/03 18:59:15;;;;;;;1.47;1.17;;;;;;;4.14;37.71;99290.31;5073373;28;41206;-81
2022/04/03 19:01:43;;;;;;;2.07;1.60;;;;;;;4.06;38.15;99289.69;5091149;28;39221;-81
2022/04/03 19:04:11;;;;;;;1.77;1.20;;;;;;;3.86;38.68;99272.78;5073010;28;41944;-80
2022/04/03 19:06:39;;;;;;;2.97;1.50;;;;;;;3.81;39.32;99277.31;5089239;28;41720;-81
2022/04/03 19:09:06;;;;;;;1.57;1.43;;;;;;;3.76;39.10;99280.94;5091855;28;42214;-81
2022/04/03 19:11:34;;;;;;;3.40;1.80;;;;;;;3.64;39.10;99271.66;5073821;28;40249;-81
2022/04/03 19:14:02;;;;;;;2.80;1.63;;;;;;;3.68;38.98;99291.66;5073418;28;40855;-81
2022/04/03 19:16:31;;;;;;;2.27;1.70;;;;;;;3.61;39.04;99301.41;5091930;28;42055;-81
2022/04/03 19:18:59;;;;;;;1.17;1.03;;;;;;;3.20;39.30;99244.97;5092666;28;42315;-81
2022/04/03 19:21:28;;;;;;;2.77;1.60;;;;;;;3.41;40.00;99287.16;5066204;28;38922;-80
2022/04/03 19:23:56;;;;;;;2.87;1.90;;;;;;;3.34;40.05;99280.38;5068699;28;41783;-79
2022/04/03 19:26:23;;;;;;;2.80;1.30;;;;;;;3.23;40.31;99273.63;5091455;28;42757;-80
2022/04/03 19:28:51;;;;;;;1.37;1.13;;;;;;;3.30;41.84;99299.66;5092272;28;42073;-80
2022/04/03 19:31:18;;;;;;;1.17;1.10;;;;;;;3.09;40.79;99275.75;5090744;28;40015;-80
2022/04/03 19:33:48;;;;;;;2.20;1.23;;;;;;;2.94;40.88;99268.31;5081343;28;41600;-85
2022/04/03 19:36:16;;;;;;;1.70;1.30;;;;;;;2.72;42.21;99227.91;5074577;28;42902;-83
2022/04/03 19:38:45;;;;;;;2.97;1.83;;;;;;;2.89;42.11;99267.56;5089015;28;43069;-81
2022/04/03 19:41:12;;;;;;;1.90;1.60;;;;;;;3.03;41.96;99294.25;5074120;28;39693;-81
2022/04/03 19:43:41;;;;;;;3.23;1.53;;;;;;;2.98;42.19;99297.84;5090847;28;43058;-80
2022/04/03 19:46:09;;;;;;;3.67;2.00;;;;;;;2.83;42.17;99286.03;5091281;28;41694;-80
2022/04/03 19:48:38;;;;;;;2.30;1.90;;;;;;;2.41;42.06;99223.41;5090177;28;43301;-81
2022/04/03 19:51:07;;;;;;;4.97;2.47;;;;;;;2.79;41.76;99300.06;5074328;28;38859;-83
2022/04/03 19:53:35;;;;;;;2.10;1.90;;;;;;;2.63;42.08;99286.50;5089333;28;41714;-82
2022/04/03 19:56:03;;;;;;;2.60;2.40;;;;;;;2.52;42.38;99281.53;5073813;28;41966;-80
2022/04/03 19:58:31;;;;;;;3.30;2.20;;;;;;;2.51;42.35;99290.25;5073503;28;42609;-82
2022/04/03 20:00:59;;;;;;;6.30;2.70;;;;;;;2.51;42.30;99305.09;5074846;28;39080;-81
2022/04/03 20:03:26;;;;;;;3.20;2.90;;;;;;;2.40;42.12;99309.69;5070218;28;40612;-81
2022/04/03 20:05:54;;;;;;;3.27;2.17;;;;;;;2.39;42.65;99310.59;5054068;28;41543;-82
2022/04/03 20:08:23;;;;;;;2.60;2.03;;;;;;;2.29;42.91;99302.09;5078940;28;42311;-82
2022/04/03 20:10:52;;;;;;;2.33;2.00;;;;;;;2.30;43.56;99314.28;5073763;28;38998;-81
2022/04/03 20:13:21;;;;;;;3.43;2.50;;;;;;;2.17;43.20;99298.00;5090177;28;42007;-80
2022/04/03 20:15:50;;;;;;;2.90;2.00;;;;;;;2.13;43.22;99311.16;5073933;28;41412;-81
2022/04/03 20:18:18;;;;;;;3.07;1.97;;;;;;;2.16;43.00;99332.00;5090279;28;42349;-80
2022/04/03 20:20:46;;;;;;;2.90;2.23;;;;;;;1.99;43.28;99313.19;5089903;28;39462;-81
2022/04/03 20:23:15;;;;;;;3.07;1.93;;;;;;;1.89;43.49;99307.31;5089045;28;42719;-81
2022/04/03 20:25:45;;;;;;;2.97;2.53;;;;;;;1.99;43.54;99331.47;5073666;28;43744;-82
2022/04/03 20:28:14;;;;;;;2.90;2.10;;;;;;;1.94;43.62;99330.72;5087620;28;42277;-81
2022/04/03 20:30:44;;;;;;;4.43;2.40;;;;;;;1.83;43.71;99317.03;5089259;28;39099;-79
2022/04/03 20:33:12;;;;;;;2.50;2.30;;;;;;;1.70;43.62;99305.97;5088631;28;42166;-80
2022/04/03 20:35:40;;;;;;;3.57;2.57;;;;;;;1.77;44.09;99326.69;5072390;28;42851;-79
2022/04/03 20:38:08;;;;;;;3.53;2.40;;;;;;;1.68;44.59;99305.13;5089984;28;41209;-81
2022/04/03 20:40:39;;;;;;;4.63;2.97;;;;;;;1.59;45.36;99298.34;5089813;28;38698;-80
2022/04/03 20:43:09;;;;;;;4.63;2.70;;;;;;;1.67;45.95;99317.31;5090119;28;40540;-80
2022/04/03 20:45:37;;;;;;;3.17;2.70;;;;;;;1.61;45.41;99320.03;5090554;28;41632;-80
2022/04/03 20:48:06;;;;;;;4.20;2.67;;;;;;;1.55;45.58;99320.16;5073837;28;41240;-80
2022/04/03 20:50:34;;;;;;;5.60;2.83;;;;;;;1.54;45.63;99326.28;5089981;28;40900;-80
2022/04/03 20:53:03;;;;;;;4.40;2.70;;;;;;;1.33;45.85;99295.38;5090827;28;42413;-80
2022/04/03 20:55:30;;;;;;;3.53;2.50;;;;;;;1.39;45.91;99323.94;5090559;28;42569;-80
2022/04/03 20:57:58;;;;;;;3.50;3.17;;;;;;;1.42;45.90;99336.94;5073694;28;41243;-81
2022/04/03 21:00:27;;;;;;;4.97;2.60;;;;;;;1.38;46.25;99335.25;5072842;28;38895;-80
2022/04/03 21:02:55;;;;;;;2.90;2.53;;;;;;;1.33;47.03;99329.28;5073902;28;41850;-80
2022/04/03 21:05:23;;;;;;;3.70;2.57;;;;;;;1.33;46.99;99337.13;5073285;28;42684;-81
2022/04/03 21:07:51;;;;;;;3.63;2.77;;;;;;;1.18;46.71;99316.50;5073629;28;42743;-81
2022/04/03 21:10:19;;;;;;;5.17;2.90;;;;;;;1.19;46.70;99324.31;5089417;28;39397;-80
2022/04/03 21:12:47;;;;;;;3.53;2.77;;;;;;;1.22;46.87;99339.03;5073677;28;41180;-81
2022/04/03 21:15:14;;;;;;;4.20;2.73;;;;;;;1.19;47.26;99334.75;5124443;27;42938;-80
2022/04/03 21:17:44;;;;;;;3.80;2.40;;;;;;;0.88;47.66;99295.25;5073627;28;41420;-80
2022/04/03 21:20:13;;;;;;;5.00;2.83;;;;;;;0.96;47.76;99314.25;5109463;27;41174;-80
2022/04/03 21:22:41;;;;;;;3.47;2.80;;;;;;;1.05;48.43;99329.75;5070194;28;41675;-81
2022/04/03 21:25:09;;;;;;;2.80;2.27;;;;;;;1.01;49.58;99315.03;5068221;28;41894;-80
2022/04/03 21:27:37;;;;;;;5.43;3.30;;;;;;;0.99;49.93;99308.97;5090096;28;42095;-80
2022/04/03 21:30:05;;;;;;;3.27;2.77;;;;;;;1.00;50.12;99317.66;5089697;28;39899;-80
2022/04/03 21:32:33;;;;;;;6.00;3.30;;;;;;;0.76;51.51;99260.72;5090893;28;42733;-80
2022/04/03 21:35:06;;;;;;;5.10;3.50;;;;;;;0.85;51.11;99287.50;5093949;28;42688;-80
2022/04/03 21:37:34;;;;;;;4.70;2.60;;;;;;;0.97;50.54;99308.16;5090783;28;43010;-80
2022/04/03 21:40:02;;;;;;;3.93;2.53;;;;;;;0.94;50.57;99300.38;5094486;28;40095;-81
2022/04/03 21:42:30;;;;;;;4.47;2.80;;;;;;;0.89;50.84;99294.38;5093447;28;41903;-79
2022/04/03 21:44:57;;;;;;;4.37;3.17;;;;;;;0.90;51.25;99288.28;5093562;28;43274;-80
2022/04/03 21:47:25;;;;;;;4.60;3.10;;;;;;;0.85;51.80;99282.31;5093381;28;40725;-82
2022/04/03 21:49:52;;;;;;;4.83;3.40;;;;;;;0.87;51.51;99285.72;5093511;28;38896;-80
2022/04/03 21:52:24;;;;;;;3.47;2.50;;;;;;;0.86;51.35;99289.25;5069423;28;41799;-80
2022/04/03 21:54:52;;;;;;;3.80;2.50;;;;;;;0.86;52.25;99286.63;5070233;28;42588;-80
2022/04/03 21:57:19;;;;;;;4.07;2.63;;;;;;;0.79;52.33;99271.97;5076366;28;42114;-80
2022/04/03 21:59:49;;;;;;;6.70;3.00;;;;;;;0.81;52.38;99280.63;5076625;28;39746;-81
2022/04/03 22:02:16;;;;;;;3.93;3.07;;;;;;;0.81;52.45;99280.63;5075884;28;41105;-81
2022/04/03 22:04:44;;;;;;;3.93;2.73;;;;;;;0.68;53.40;99258.25;5094459;28;43788;-79
2022/04/03 22:07:12;;;;;;;3.37;2.47;;;;;;;0.80;53.29;99273.69;5075972;28;42406;-81
2022/04/03 22:09:41;;;;;;;3.53;2.83;;;;;;;0.79;54.30;99271.97;5093093;28;39278;-80
2022/04/03 22:12:09;;;;;;;4.70;3.50;;;;;;;0.65;53.68;99247.84;5093000;28;42745;-80
2022/04/03 22:14:37;;;;;;;4.13;2.53;;;;;;;0.76;53.60;99274.59;5093307;28;43450;-79
2022/04/03 22:17:05;;;;;;;4.03;3.00;;;;;;;0.75;53.35;99270.28;5092564;28;42914;-79
2022/04/03 22:19:33;;;;;;;7.47;3.20;;;;;;;0.64;53.45;99267.00;5127422;27;40030;-80
2022/04/03 22:22:00;;;;;;;3.37;2.80;;;;;;;0.58;53.64;99256.69;5075926;28;41709;-80
2022/04/03 22:24:28;;;;;;;4.03;2.60;;;;;;;0.63;53.40;99265.25;5094036;28;43765;-80
2022/04/03 22:26:58;;;;;;;4.37;2.80;;;;;;;0.64;53.26;99277.41;5074437;28;41274;-80
2022/04/03 22:29:25;;;;;;;5.17;3.13;;;;;;;0.61;53.28;99278.34;5094213;28;40019;-79
2022/04/03 22:31:53;;;;;;;4.00;3.17;;;;;;;0.59;53.15;99279.25;5093162;28;41819;-80
2022/04/03 22:34:20;;;;;;;4.90;3.33;;;;;;;0.45;53.62;99265.56;5075902;28;41823;-81
2022/04/03 22:36:48;;;;;;;3.27;2.67;;;;;;;0.43;53.67;99262.97;5071787;28;41920;-81
2022/04/03 22:39:16;;;;;;;2.83;2.50;;;;;;;0.41;53.95;99269.09;5072712;28;39902;-79
2022/04/03 22:41:44;;;;;;;4.20;2.60;;;;;;;0.52;53.37;99290.63;5055042;28;40727;-81
2022/04/03 22:44:13;;;;;;;4.47;2.53;;;;;;;0.40;52.94;99289.06;5071997;28;42615;-80
2022/04/03 22:46:41;;;;;;;3.63;2.50;;;;;;;0.46;52.73;99303.78;5060208;28;40868;-81
2022/04/03 22:49:08;;;;;;;3.93;2.50;;;;;;;0.42;53.25;99304.69;5055259;28;40229;-81
2022/04/03 22:51:36;;;;;;;2.93;2.33;;;;;;;0.37;53.50;99290.88;5071834;28;41644;-80
2022/04/03 22:54:04;;;;;;;5.47;2.77;;;;;;;0.36;53.13;99303.06;5073494;28;43889;-81
2022/04/03 22:56:32;;;;;;;2.27;2.07;;;;;;;0.34;53.37;99295.25;5091928;28;42229;-81
2022/04/03 22:58:59;;;;;;;3.03;2.50;;;;;;;0.28;53.12;99295.31;5075633;28;39962;-79
2022/04/03 23:01:29;;;;;;;3.77;2.50;;;;;;;0.29;53.62;99302.25;5075035;28;40980;-80
2022/04/03 23:03:57;;;;;;;3.50;2.40;;;;;;;0.17;53.44;99281.59;5092518;28;42909;-80
2022/04/03 23:06:25;;;;;;;4.00;2.80;;;;;;;0.20;53.18;99291.13;5091499;28;42118;-80
2022/04/03 23:08:52;;;;;;;2.87;2.20;;;;;;;0.21;53.08;99296.31;5092169;28;39955;-81
2022/04/03 23:11:20;;;;;;;1.80;1.67;;;;;;;0.20;53.39;99296.31;5091877;28;41975;-79
2022/04/03 23:13:48;;;;;;;3.53;2.23;;;;;;;0.17;53.63;99291.16;5074935;28;42866;-81
2022/04/03 23:16:16;;;;;;;2.47;2.20;;;;;;;0.03;54.27;99267.91;5091338;28;42249;-79
2022/04/03 23:18:52;;;;;;;3.33;1.87;;;;;;;-0.04;53.75;99261.06;5075589;28;39110;-78
2022/04/03 23:21:19;;;;;;;5.87;2.37;;;;;;;0.09;53.58;99290.41;5075097;28;43037;-80
2022/04/03 23:23:53;;;;;;;2.43;2.13;;;;;;;-0.06;54.15;99268.03;5074250;28;42945;-81
2022/04/03 23:26:21;;;;;;;4.17;2.73;;;;;;;-0.02;53.74;99282.75;5092743;28;42428;-80
2022/04/03 23:28:48;;;;;;;3.10;2.00;;;;;;;-0.10;53.82;99274.16;5092019;28;39935;-78
2022/04/03 23:31:16;;;;;;;3.00;2.20;;;;;;;-0.04;54.04;99284.50;5091191;28;40802;-79
2022/04/03 23:33:44;;;;;;;5.43;2.30;;;;;;;-0.14;54.52;99262.06;5091657;28;42811;-81
2022/04/03 23:36:13;;;;;;;3.60;2.60;;;;;;;-0.06;55.26;99273.25;5074719;28;41556;-80
2022/04/03 23:38:42;;;;;;;4.23;2.50;;;;;;;-0.06;55.10;99276.69;5091979;28;40451;-79
2022/04/03 23:41:09;;;;;;;2.83;2.50;;;;;;;-0.18;57.41;99239.56;5092758;28;41415;-79
2022/04/03 23:43:37;;;;;;;3.87;2.50;;;;;;;-0.06;58.74;99255.00;5091040;28;41888;-81
2022/04/03 23:46:04;;;;;;;4.57;2.77;;;;;;;-0.06;57.83;99265.44;5074220;28;42618;-79
2022/04/03 23:48:32;;;;;;;2.43;2.23;;;;;;;-0.06;57.16;99262.81;5091806;28;39887;-80
2022/04/03 23:51:00;;;;;;;2.13;1.77;;;;;;;-0.06;57.19;99262.81;5088977;28;41813;-81
2022/04/03 23:53:29;;;;;;;2.80;2.20;;;;;;;-0.06;58.31;99257.63;5092355;28;43435;-81
2022/04/03 23:55:56;;;;;;;3.80;2.50;;;;;;;-0.09;58.47;99253.31;5090071;28;42441;-80
2022/04/03 23:58:24;;;;;;;3.90;2.33;;;;;;;-0.17;58.48;99225.66;5092830;28;39991;-80
